This is the latest recevied weather packets stored in our database for station/object E24CR-1. If no packets are shown the sender has not sent any weather packets the latest 1 day(s).
| Time | Temp. | Humidity | Pressure | Rain* | Wind** | Luminosity | Snow |
|---|---|---|---|---|---|---|---|
| 1778028219 | 26.67° C | 80% | 952 hPa | - | 0 m/s | 0 W/m² | - |
| 1778027595 | 26.67° C | 80% | 952 hPa | - | 0 m/s | 0 W/m² | - |
| 1778026971 | 26.67° C | 80% | 952 hPa | - | 0 m/s | 0 W/m² | - |
| 1778026347 | 26.11° C | 80% | 952 hPa | - | 0 m/s | 0 W/m² | - |
| 1778025722 | 26.11° C | 82% | 952 hPa | - | 0 m/s | 0 W/m² | - |
| 1778025098 | 26.11° C | 81% | 952 hPa | - | 0 m/s | 0 W/m² | - |
| 1778024474 | 26.11° C | 81% | 952 hPa | - | 0 m/s | 0 W/m² | - |
| 1778023850 | 26.11° C | 83% | 952 hPa | - | 0 m/s | 0 W/m² | - |
| 1778023226 | 25° C | 87% | 952 hPa | - | 0 m/s | 0 W/m² | - |
| 1778022602 | 24.44° C | 90% | 952 hPa | - | 0 m/s | 0 W/m² | - |
| 1778021978 | 25.56° C | 84% | 951 hPa | - | 0 m/s | 0 W/m² | - |
| 1778021347 | 25.56° C | 84% | 951 hPa | - | 0 m/s | 0 W/m² | - |
| 1778020715 | 25° C | 87% | 951 hPa | - | 0 m/s | 0 W/m² | - |
| 1778020091 | 24.44° C | 90% | 951 hPa | - | 0 m/s | 0 W/m² | - |
| 1778019466 | 24.44° C | 89% | 951 hPa | - | 0 m/s | 0 W/m² | - |
| 1778018842 | 25° C | 90% | 951 hPa | - | 0 m/s | 0 W/m² | - |
| 1778018218 | 25° C | 86% | 951 hPa | - | 0 m/s | 0 W/m² | - |
| 1778017594 | 25.56° C | 82% | 951 hPa | - | 0 m/s | 0 W/m² | - |
| 1778016970 | 25° C | 82% | 951 hPa | - | 0 m/s | 0 W/m² | - |
| 1778016346 | 25° C | 80% | 951 hPa | - | 0 m/s | 0 W/m² | - |
| 1778015722 | 25° C | 81% | 951 hPa | - | 0 m/s | 0 W/m² | - |
| 1778015098 | 25° C | 82% | 951 hPa | - | 0 m/s | 0 W/m² | - |
| 1778014474 | 25° C | 81% | 951 hPa | - | 0 m/s | 0 W/m² | - |
| 1778013849 | 24.44° C | 82% | 951 hPa | - | 0 m/s | 0 W/m² | - |
| 1778013225 | 25° C | 81% | 951 hPa | - | 0 m/s | 0 W/m² | - |
* Rain since midnight (hover to see other rain measurements)
** Current wind speed in m/s (hover to see current wind gust speed)